Cuba, New Mexico
Current Conditions -  °F | °C
As of 11:35 PM on Friday 24 Oct 2014 (Local Time) from KLAM Reporting Station
Clear Clear  
Wind Chill: 60°   Ceiling: Unl
Heat Index: 60°   Visibility: 10mi
Dew Point: 19°   Wind: 3mph
Humidity: 21%   Direction: 190°S
Pressure: 30.39"   Gusts: NA
Location:  36.02°N, 106.96°W
Report Text: KLAM 250535Z AUTO 19003KT 10SM CLR 16/M07 A3039 RMK AO2 T01561071
Loading
Personal Weather Stations






























Interactive Weather Map
Tropical Storm Tracking
New forecast layout! Learn more

10-Day Weather Forecast

Advertisements
Track Severe Weather on mobile